Time;durP1;ratioP1;P1;durP2;ratioP2;P2;SDS_P1;SDS_P2;PMS_P1;PMS_P2;Temp;Humidity;BMP_temperature;BMP_pressure;BME280_temperature;BME280_humidity;BME280_pressure;Samples;Min_cycle;Max_cycle;Signal;HPM_P1;HPM_P2
2021/06/02 00:01:55;;;;;;;1.87;1.67;;;13.60;99.90;;;;;;4952894;28;20768;-66
2021/06/02 00:04:25;;;;;;;2.03;1.60;;;13.50;99.90;;;;;;4952529;28;20426;-66
2021/06/02 00:06:57;;;;;;;1.80;1.53;;;13.40;99.90;;;;;;4952953;28;20452;-66
2021/06/02 00:09:26;;;;;;;2.00;1.30;;;13.30;99.90;;;;;;4953100;28;20391;-66
2021/06/02 00:11:56;;;;;;;2.57;1.33;;;13.30;99.90;;;;;;4952780;28;20471;-66
2021/06/02 00:14:25;;;;;;;1.57;1.37;;;13.20;99.90;;;;;;4952371;29;20441;-67
2021/06/02 00:16:54;;;;;;;2.90;1.60;;;13.20;99.90;;;;;;4952747;28;20431;-65
2021/06/02 00:19:22;;;;;;;3.20;1.50;;;13.20;99.90;;;;;;4952233;28;20972;-65
2021/06/02 00:21:50;;;;;;;2.00;1.67;;;13.30;99.90;;;;;;4952337;28;20494;-66
2021/06/02 00:24:20;;;;;;;3.57;1.97;;;13.20;99.90;;;;;;4952198;29;20812;-66
2021/06/02 00:26:51;;;;;;;4.03;1.20;;;13.20;99.90;;;;;;4952438;28;20835;-66
2021/06/02 00:29:20;;;;;;;2.57;1.50;;;13.20;99.90;;;;;;4951436;29;20449;-64
2021/06/02 00:31:48;;;;;;;2.90;2.43;;;13.20;99.90;;;;;;4952254;28;20487;-65
2021/06/02 00:34:19;;;;;;;1.60;1.50;;;13.20;99.90;;;;;;4967347;28;20463;-65
2021/06/02 00:36:47;;;;;;;2.87;1.57;;;13.10;99.90;;;;;;4953971;28;20406;-65
2021/06/02 00:39:15;;;;;;;2.20;1.53;;;13.10;99.90;;;;;;4957489;28;20813;-66
2021/06/02 00:41:47;;;;;;;3.43;1.53;;;13.00;99.90;;;;;;4953739;29;20424;-66
2021/06/02 00:44:17;;;;;;;2.77;1.80;;;13.00;99.90;;;;;;4954139;28;20458;-66
2021/06/02 00:46:46;;;;;;;4.27;2.90;;;13.00;99.90;;;;;;4953824;28;20418;-66
2021/06/02 00:49:22;;;;;;;1.90;1.50;;;12.90;99.90;;;;;;4952803;28;20919;-65
2021/06/02 00:51:50;;;;;;;2.87;2.20;;;12.90;99.90;;;;;;4950653;29;20435;-65
2021/06/02 00:54:19;;;;;;;5.63;2.60;;;12.90;99.90;;;;;;4952319;28;20758;-65
2021/06/02 00:56:50;;;;;;;4.90;2.63;;;12.90;99.90;;;;;;4951313;29;20430;-65
2021/06/02 00:59:20;;;;;;;3.80;2.90;;;12.80;99.90;;;;;;4952064;28;20442;-65
2021/06/02 01:01:48;;;;;;;2.93;1.60;;;12.80;99.90;;;;;;4951613;28;20398;-66
2021/06/02 01:04:16;;;;;;;2.33;1.90;;;12.80;99.90;;;;;;4951523;28;20510;-66
2021/06/02 01:06:45;;;;;;;2.83;1.90;;;12.80;99.90;;;;;;4951674;28;20424;-65
2021/06/02 01:09:13;;;;;;;1.80;1.40;;;12.80;99.90;;;;;;4951856;28;20431;-66
2021/06/02 01:11:42;;;;;;;2.20;2.00;;;12.70;99.90;;;;;;4966178;28;20595;-66
2021/06/02 01:14:11;;;;;;;2.40;2.20;;;12.70;99.90;;;;;;4951621;28;20459;-65
2021/06/02 01:16:39;;;;;;;4.20;2.13;;;12.70;99.90;;;;;;4952002;28;20443;-66
2021/06/02 01:19:10;;;;;;;3.63;1.90;;;12.60;99.90;;;;;;4951691;28;20469;-65
2021/06/02 01:21:51;;;;;;;4.93;1.60;;;12.60;99.90;;;;;;4951528;28;20424;-65
2021/06/02 01:24:19;;;;;;;2.50;1.67;;;12.50;99.90;;;;;;4951547;28;20422;-65
2021/06/02 01:26:54;;;;;;;2.53;2.03;;;12.60;99.90;;;;;;4952049;28;20775;-64
2021/06/02 01:29:22;;;;;;;3.07;2.33;;;12.50;99.90;;;;;;4966551;28;20490;-65
2021/06/02 01:32:12;;;;;;;2.77;2.40;;;12.40;99.90;;;;;;4951680;28;20435;-65
2021/06/02 01:35:17;;;;;;;4.07;2.83;;;12.40;99.90;;;;;;4942701;29;20467;-65
2021/06/02 01:38:15;;;;;;;2.20;1.80;;;12.30;99.90;;;;;;4951573;28;20927;-65
2021/06/02 01:41:03;;;;;;;2.60;1.87;;;12.20;99.90;;;;;;4951395;28;21022;-67
2021/06/02 01:44:03;;;;;;;2.77;1.73;;;12.20;99.90;;;;;;4951618;28;20411;-65
2021/06/02 01:46:52;;;;;;;2.93;1.50;;;12.20;99.90;;;;;;4966441;28;20443;-64
2021/06/02 01:49:37;;;;;;;1.87;1.70;;;12.10;99.90;;;;;;4951577;28;20455;-64
2021/06/02 01:52:19;;;;;;;3.77;2.87;;;12.10;99.90;;;;;;4951342;29;20410;-65
2021/06/02 01:55:14;;;;;;;4.43;2.73;;;12.10;99.90;;;;;;4951477;28;20794;-65
2021/06/02 01:58:26;;;;;;;3.78;3.03;;;12.10;99.90;;;;;;4951535;28;20403;-65
2021/06/02 02:01:21;;;;;;;5.63;2.53;;;12.10;99.90;;;;;;4950919;28;20293;-65
2021/06/02 02:04:15;;;;;;;3.43;2.30;;;12.00;99.90;;;;;;4951327;28;20422;-67
2021/06/02 02:07:05;;;;;;;4.97;2.67;;;12.00;99.90;;;;;;4952080;28;20410;-65
2021/06/02 02:09:50;;;;;;;4.30;2.77;;;12.10;99.90;;;;;;4955281;28;20486;-65
2021/06/02 02:12:30;;;;;;;4.70;2.37;;;12.00;99.90;;;;;;4954725;28;20787;-64
2021/06/02 02:15:07;;;;;;;3.60;2.75;;;12.00;99.90;;;;;;4955765;28;20433;-66
2021/06/02 02:17:54;;;;;;;6.43;2.92;;;11.90;99.90;;;;;;4956123;28;20598;-65
2021/06/02 02:20:29;;;;;;;10.83;2.37;;;11.90;99.90;;;;;;4956455;28;20226;-65
2021/06/02 02:23:13;;;;;;;3.17;2.87;;;11.80;99.90;;;;;;4954570;28;20931;-65
2021/06/02 02:25:54;;;;;;;5.38;2.65;;;11.80;99.90;;;;;;4954700;28;20412;-66
2021/06/02 02:28:47;;;;;;;4.47;2.40;;;11.70;99.90;;;;;;4954434;28;20197;-65
2021/06/02 02:31:43;;;;;;;2.85;2.63;;;11.70;99.90;;;;;;4954384;28;20479;-65
2021/06/02 02:34:25;;;;;;;3.67;2.93;;;11.70;99.90;;;;;;4954402;28;20208;-65
2021/06/02 02:36:59;;;;;;;3.78;3.28;;;11.70;99.90;;;;;;4954580;28;20487;-65
2021/06/02 02:39:35;;;;;;;3.15;2.85;;;11.70;99.90;;;;;;4954388;29;20205;-66
2021/06/02 02:42:08;;;;;;;5.50;2.60;;;11.60;99.90;;;;;;4954263;29;20267;-66
2021/06/02 02:44:57;;;;;;;4.90;3.30;;;11.60;99.90;;;;;;4953854;28;20223;-66
2021/06/02 02:47:33;;;;;;;3.10;2.80;;;11.60;99.90;;;;;;4954915;28;20211;-66
2021/06/02 02:50:06;;;;;;;5.28;3.53;;;11.60;99.90;;;;;;4954548;28;20434;-66
2021/06/02 02:52:49;;;;;;;5.10;3.03;;;11.60;99.90;;;;;;4954324;28;20673;-65
2021/06/02 02:55:21;;;;;;;4.57;3.17;;;11.60;99.90;;;;;;4954146;29;20407;-65
2021/06/02 02:57:56;;;;;;;3.93;3.53;;;11.60;99.90;;;;;;4954158;28;20200;-65
2021/06/02 03:00:31;;;;;;;4.67;3.00;;;11.60;99.90;;;;;;4954127;28;20461;-66
2021/06/02 03:03:06;;;;;;;4.68;3.55;;;11.50;99.90;;;;;;4953805;28;20479;-65
2021/06/02 03:05:38;;;;;;;4.10;3.30;;;11.50;99.90;;;;;;4954065;28;20187;-66
2021/06/02 03:08:13;;;;;;;5.47;4.10;;;11.50;99.90;;;;;;4953981;28;20670;-66
2021/06/02 03:10:44;;;;;;;6.07;3.03;;;11.50;99.90;;;;;;4954151;28;20187;-66
2021/06/02 03:15:59;;;;;;;7.45;4.55;;;11.40;99.90;;;;;;4922933;29;20217;-83
2021/06/02 03:18:37;;;;;;;6.72;3.97;;;11.40;99.90;;;;;;4924268;29;20225;-84
2021/06/02 03:21:17;;;;;;;6.85;4.38;;;11.40;99.90;;;;;;4932402;29;20228;-84
2021/06/02 03:24:04;;;;;;;5.30;4.72;;;11.30;99.90;;;;;;4924149;29;20209;-84
2021/06/02 03:26:36;;;;;;;9.68;3.92;;;11.20;99.90;;;;;;4922975;29;20201;-84
2021/06/02 03:29:16;;;;;;;6.97;5.57;;;11.20;99.90;;;;;;4907619;29;20604;-84
2021/06/02 03:32:05;;;;;;;6.30;4.35;;;11.20;99.90;;;;;;4922798;29;20208;-83
2021/06/02 03:34:49;;;;;;;7.97;4.53;;;11.20;99.90;;;;;;4922870;29;20229;-83
2021/06/02 03:37:26;;;;;;;6.07;4.72;;;11.10;99.90;;;;;;4906989;29;20194;-83
2021/06/02 03:40:07;;;;;;;7.38;5.55;;;11.00;99.90;;;;;;4906756;29;20213;-84
2021/06/02 03:42:43;;;;;;;9.52;4.78;;;10.90;99.90;;;;;;4922579;29;20611;-84
2021/06/02 03:45:33;;;;;;;10.00;4.05;;;11.00;99.90;;;;;;4907504;29;20312;-83
2021/06/02 03:48:15;;;;;;;10.15;5.72;;;11.00;99.90;;;;;;4923893;29;20185;-83
2021/06/02 03:50:50;;;;;;;7.65;5.30;;;10.90;99.90;;;;;;4925108;29;20567;-83
2021/06/02 03:53:32;;;;;;;6.60;5.38;;;10.90;99.90;;;;;;4924655;29;20249;-84
2021/06/02 03:56:19;;;;;;;9.25;5.70;;;11.00;99.90;;;;;;4906666;29;20280;-83
2021/06/02 03:58:55;;;;;;;8.55;5.85;;;11.00;99.90;;;;;;4923361;29;20200;-83
2021/06/02 04:01:28;;;;;;;9.07;5.93;;;11.10;99.90;;;;;;4922731;29;20562;-84
2021/06/02 04:04:09;;;;;;;10.20;7.28;;;11.20;99.90;;;;;;4910713;29;20233;-84
2021/06/02 04:07:03;;;;;;;10.38;9.15;;;11.30;99.90;;;;;;4930892;29;20192;-84
2021/06/02 04:09:42;;;;;;;11.18;6.25;;;11.50;99.90;;;;;;4925446;29;20240;-83
2021/06/02 04:12:19;;;;;;;9.10;5.03;;;11.50;99.90;;;;;;4907327;29;20565;-83
2021/06/02 04:14:55;;;;;;;8.35;6.53;;;11.40;99.90;;;;;;4923378;29;20240;-83
2021/06/02 04:17:25;;;;;;;10.90;6.15;;;11.20;99.90;;;;;;4940473;29;20200;-85
2021/06/02 04:19:55;;;;;;;8.73;6.90;;;11.20;99.90;;;;;;4924605;29;20294;-84
2021/06/02 04:22:24;;;;;;;11.30;6.30;;;11.30;99.90;;;;;;4941117;29;20166;-84
2021/06/02 04:24:52;;;;;;;13.98;6.82;;;11.30;99.90;;;;;;4923812;29;20276;-85
2021/06/02 04:27:20;;;;;;;9.90;5.75;;;11.50;99.90;;;;;;4941642;28;20225;-85
2021/06/02 04:29:51;;;;;;;8.17;6.50;;;11.90;99.90;;;;;;4941631;29;20249;-85
2021/06/02 04:32:19;;;;;;;8.13;5.85;;;12.20;99.90;;;;;;4924499;29;20447;-84
2021/06/02 04:34:49;;;;;;;7.43;5.70;;;12.50;99.90;;;;;;4924485;29;20201;-81
2021/06/02 04:37:21;;;;;;;7.20;5.57;;;13.30;99.90;;;;;;4941137;29;20437;-82
2021/06/02 04:39:48;;;;;;;6.23;5.13;;;13.90;99.90;;;;;;4940386;29;20440;-83
2021/06/02 04:42:17;;;;;;;5.90;4.50;;;14.00;99.90;;;;;;4941053;29;20422;-83
2021/06/02 04:44:49;;;;;;;6.00;4.13;;;14.80;99.90;;;;;;4940961;29;20432;-82
2021/06/02 04:47:19;;;;;;;6.07;5.10;;;15.50;99.90;;;;;;4924313;29;20433;-83
2021/06/02 04:50:07;;;;;;;7.63;6.10;;;15.40;99.90;;;;;;4939703;29;20433;-82
2021/06/02 04:53:16;;;;;;;13.13;6.40;;;14.50;99.90;;;;;;4906865;29;20507;-83
2021/06/02 04:55:59;;;;;;;6.10;5.33;;;13.70;99.90;;;;;;4905258;29;20965;-84
2021/06/02 04:59:09;;;;;;;7.50;6.70;;;12.90;99.90;;;;;;4922002;29;20425;-83
2021/06/02 05:02:01;;;;;;;8.17;6.27;;;12.20;99.90;;;;;;4924483;29;20459;-83
2021/06/02 05:05:04;;;;;;;6.07;4.70;;;12.00;99.90;;;;;;4910178;29;20465;-84
2021/06/02 05:08:08;;;;;;;7.10;5.13;;;11.90;99.90;;;;;;4921885;29;20491;-84
2021/06/02 05:11:18;;;;;;;8.50;5.47;;;12.10;99.90;;;;;;4920529;29;20481;-83
2021/06/02 05:14:35;;;;;;;8.70;5.00;;;12.00;99.90;;;;;;4906252;29;20444;-84
2021/06/02 05:17:35;;;;;;;11.00;6.47;;;12.10;99.90;;;;;;4907214;29;20201;-85
2021/06/02 05:20:52;;;;;;;10.80;5.50;;;12.20;99.90;;;;;;4905879;29;20472;-85
2021/06/02 05:23:56;;;;;;;6.67;5.10;;;12.50;99.90;;;;;;4905579;29;20441;-86
2021/06/02 05:27:08;;;;;;;6.27;5.30;;;12.70;99.90;;;;;;4923594;29;20513;-84
2021/06/02 05:30:16;;;;;;;9.93;5.17;;;12.80;99.90;;;;;;4937300;29;20441;-84
2021/06/02 05:33:43;;;;;;;6.97;5.20;;;13.00;99.90;;;;;;4922740;29;20414;-84
2021/06/02 05:36:53;;;;;;;9.60;5.33;;;13.20;99.90;;;;;;4849920;29;20815;-84
2021/06/02 05:39:48;;;;;;;8.03;5.67;;;13.00;99.90;;;;;;4923088;29;20445;-85
2021/06/02 05:42:23;;;;;;;7.10;5.00;;;13.20;99.90;;;;;;4910729;29;20453;-86
2021/06/02 05:45:36;;;;;;;8.83;5.60;;;13.10;99.90;;;;;;4908975;29;21063;-85
2021/06/02 05:48:43;;;;;;;6.60;4.67;;;13.00;99.90;;;;;;4926176;29;20706;-84
2021/06/02 05:51:40;;;;;;;5.40;4.90;;;12.80;99.90;;;;;;4926270;29;20420;-84
2021/06/02 05:54:55;;;;;;;11.47;6.40;;;12.90;99.90;;;;;;4911145;29;20463;-86
2021/06/02 05:57:56;;;;;;;9.93;5.70;;;12.90;99.90;;;;;;4945255;29;20426;-85
2021/06/02 06:00:53;;;;;;;6.97;5.07;;;13.20;99.90;;;;;;4926631;29;20476;-84
2021/06/02 06:03:54;;;;;;;5.97;5.10;;;13.30;99.90;;;;;;4925487;29;20426;-84
2021/06/02 06:06:31;;;;;;;5.80;5.07;;;13.20;99.90;;;;;;4942944;29;20420;-84
2021/06/02 06:09:46;;;;;;;7.37;4.40;;;13.50;99.90;;;;;;4926525;29;20418;-84
2021/06/02 06:12:43;;;;;;;5.33;4.70;;;13.60;99.90;;;;;;4927308;29;20399;-85
2021/06/02 06:15:50;;;;;;;7.27;4.83;;;13.60;99.90;;;;;;4923646;29;20477;-84
2021/06/02 06:18:59;;;;;;;7.83;5.93;;;13.90;99.90;;;;;;4907728;29;20439;-86
2021/06/02 06:22:03;;;;;;;5.07;4.40;;;13.90;99.90;;;;;;4909252;29;20983;-87
2021/06/02 06:24:37;;;;;;;6.50;5.90;;;14.10;99.90;;;;;;4927114;29;20432;-85
2021/06/02 06:27:09;;;;;;;5.93;4.90;;;14.20;99.90;;;;;;4923574;29;20945;-86
2021/06/02 06:29:52;;;;;;;9.40;4.37;;;14.40;99.90;;;;;;4924326;29;20432;-86
2021/06/02 06:32:21;;;;;;;6.53;5.73;;;14.50;99.90;;;;;;4909034;29;20450;-83
2021/06/02 06:34:52;;;;;;;9.60;4.10;;;14.50;99.90;;;;;;4912567;29;20469;-85
2021/06/02 06:37:23;;;;;;;6.47;4.63;;;14.50;99.90;;;;;;4929305;29;20454;-86
2021/06/02 06:39:54;;;;;;;7.03;5.57;;;14.40;99.90;;;;;;4911848;29;20479;-84
2021/06/02 06:42:23;;;;;;;5.70;5.10;;;14.80;99.90;;;;;;4931685;29;20461;-86
2021/06/02 06:44:57;;;;;;;6.00;4.73;;;14.90;99.90;;;;;;4919905;29;20464;-85
2021/06/02 06:47:27;;;;;;;7.40;5.90;;;14.90;99.90;;;;;;4920731;29;20436;-85
2021/06/02 06:49:57;;;;;;;8.50;4.73;;;15.10;99.90;;;;;;4934136;29;20479;-85
2021/06/02 06:52:26;;;;;;;8.63;5.83;;;14.80;99.90;;;;;;4923878;29;20440;-85
2021/06/02 06:54:57;;;;;;;5.30;4.30;;;14.70;99.90;;;;;;4922175;29;20482;-84
2021/06/02 06:57:26;;;;;;;7.43;6.70;;;14.70;99.90;;;;;;4939224;29;20440;-83
2021/06/02 07:00:00;;;;;;;10.10;6.83;;;14.90;99.90;;;;;;4921504;29;20428;-87
2021/06/02 07:02:28;;;;;;;4.53;4.13;;;15.10;99.90;;;;;;4920570;29;20446;-84
2021/06/02 07:04:58;;;;;;;5.60;5.10;;;15.20;99.90;;;;;;4932758;29;20454;-84
2021/06/02 07:07:27;;;;;;;5.17;3.80;;;15.10;99.90;;;;;;4927543;29;20436;-84
2021/06/02 07:09:55;;;;;;;6.60;4.90;;;15.20;99.90;;;;;;4909508;29;20422;-83
2021/06/02 07:12:24;;;;;;;5.33;4.67;;;15.40;99.90;;;;;;4926116;29;20416;-84
2021/06/02 07:14:54;;;;;;;6.30;5.43;;;15.50;99.90;;;;;;4925885;29;20468;-84
2021/06/02 07:17:24;;;;;;;4.97;4.47;;;15.80;99.90;;;;;;4908487;29;20419;-83
2021/06/02 07:20:00;;;;;;;7.53;5.63;;;16.00;99.90;;;;;;4908610;29;20418;-83
2021/06/02 07:22:28;;;;;;;7.50;4.27;;;16.10;99.90;;;;;;4907347;29;20955;-84
2021/06/02 07:24:57;;;;;;;8.63;5.30;;;16.30;99.90;;;;;;4907348;29;20466;-83
2021/06/02 07:27:27;;;;;;;7.87;5.40;;;16.40;99.90;;;;;;4923195;29;20435;-84
2021/06/02 07:29:54;;;;;;;8.60;4.90;;;16.20;99.90;;;;;;4906312;29;20427;-84
2021/06/02 07:32:23;;;;;;;4.80;4.30;;;16.20;99.90;;;;;;4923499;29;20925;-84
2021/06/02 07:34:51;;;;;;;6.37;4.00;;;16.20;99.90;;;;;;4906148;29;20473;-84
2021/06/02 07:37:19;;;;;;;5.23;4.07;;;16.30;99.90;;;;;;4906433;29;20504;-84
2021/06/02 07:39:47;;;;;;;4.93;4.43;;;16.30;99.90;;;;;;4904593;29;20456;-84
2021/06/02 07:42:15;;;;;;;5.23;4.10;;;16.60;99.90;;;;;;4908184;29;20478;-84
2021/06/02 07:44:43;;;;;;;8.60;4.53;;;16.90;99.90;;;;;;4926760;29;20756;-85
2021/06/02 07:47:11;;;;;;;6.10;5.50;;;17.10;99.90;;;;;;4927757;29;20460;-85
2021/06/02 07:49:56;;;;;;;9.63;5.07;;;17.20;99.90;;;;;;4910228;29;20441;-83
2021/06/02 07:52:24;;;;;;;7.97;4.57;;;17.40;99.90;;;;;;4926001;29;20413;-85
2021/06/02 07:54:52;;;;;;;4.60;4.20;;;17.60;99.90;;;;;;4909658;29;20461;-86
2021/06/02 07:57:20;;;;;;;4.57;4.17;;;17.50;99.90;;;;;;4926397;29;20426;-85
2021/06/02 07:59:48;;;;;;;8.20;5.80;;;17.70;99.90;;;;;;4908453;29;20511;-83
2021/06/02 08:02:16;;;;;;;7.63;5.43;;;18.10;99.90;;;;;;4909150;29;20466;-84
2021/06/02 08:04:43;;;;;;;4.20;3.60;;;18.30;99.90;;;;;;4916133;29;20435;-82
2021/06/02 08:07:13;;;;;;;11.10;4.20;;;18.60;99.90;;;;;;4924290;29;20449;-82
2021/06/02 08:09:40;;;;;;;4.83;4.37;;;18.80;99.90;;;;;;4933264;29;20433;-83
2021/06/02 08:12:10;;;;;;;5.80;4.40;;;18.70;99.90;;;;;;4934453;29;20487;-83
2021/06/02 08:14:39;;;;;;;8.03;4.50;;;18.70;99.90;;;;;;4932579;29;20481;-83
2021/06/02 08:17:07;;;;;;;6.80;3.93;;;18.70;99.90;;;;;;4929593;29;20409;-82
2021/06/02 08:19:34;;;;;;;6.07;4.10;;;18.80;99.90;;;;;;4923699;29;20421;-82
2021/06/02 08:22:03;;;;;;;9.60;4.67;;;18.90;99.90;;;;;;4926369;29;20827;-81
2021/06/02 08:24:37;;;;;;;5.33;4.47;;;18.70;99.90;;;;;;4927341;29;20420;-80
2021/06/02 08:27:08;;;;;;;4.97;4.47;;;18.70;99.90;;;;;;4911536;29;20453;-82
2021/06/02 08:29:35;;;;;;;6.03;4.33;;;18.50;99.90;;;;;;4931153;29;20424;-82
2021/06/02 08:32:04;;;;;;;5.13;4.63;;;18.80;99.90;;;;;;4930128;29;20446;-82
2021/06/02 08:34:32;;;;;;;5.90;4.73;;;19.00;99.90;;;;;;4929409;29;20440;-80
2021/06/02 08:37:01;;;;;;;5.67;4.63;;;19.10;99.90;;;;;;4929346;29;20909;-81
2021/06/02 08:39:29;;;;;;;6.27;4.60;;;19.40;99.90;;;;;;4929167;29;20446;-82
2021/06/02 08:42:15;;;;;;;5.07;4.63;;;19.40;99.90;;;;;;4929620;29;20465;-81
2021/06/02 08:44:43;;;;;;;4.93;4.43;;;19.20;99.90;;;;;;4929653;29;20540;-81
2021/06/02 08:47:11;;;;;;;9.17;5.67;;;19.10;99.90;;;;;;4929103;29;20453;-82
2021/06/02 08:49:39;;;;;;;6.10;3.93;;;19.20;99.90;;;;;;4934677;29;20445;-83
2021/06/02 08:52:09;;;;;;;6.30;4.50;;;19.30;99.90;;;;;;4931571;29;20853;-82
2021/06/02 08:54:38;;;;;;;5.50;5.00;;;19.60;99.90;;;;;;4914329;29;20464;-82
2021/06/02 08:57:09;;;;;;;4.77;4.23;;;19.80;99.90;;;;;;4933124;29;20429;-83
2021/06/02 08:59:39;;;;;;;5.13;4.63;;;20.00;99.90;;;;;;4913298;29;20936;-84
2021/06/02 09:02:07;;;;;;;6.17;5.13;;;20.30;99.90;;;;;;4928139;29;20429;-83
2021/06/02 09:04:35;;;;;;;5.43;4.37;;;20.50;99.90;;;;;;4926235;29;20495;-82
2021/06/02 09:07:05;;;;;;;9.10;5.07;;;20.30;99.90;;;;;;4929839;29;20464;-83
2021/06/02 09:09:33;;;;;;;6.20;4.10;;;20.40;99.90;;;;;;4929941;29;20417;-83
2021/06/02 09:12:07;;;;;;;5.50;4.43;;;20.60;99.90;;;;;;4936029;29;20479;-83
2021/06/02 09:14:37;;;;;;;6.83;4.57;;;20.80;99.90;;;;;;4950717;23;20494;-82
2021/06/02 09:17:08;;;;;;;6.50;4.27;;;21.00;99.90;;;;;;4988782;28;20473;-82
2021/06/02 09:19:41;;;;;;;5.33;4.23;;;21.10;99.90;;;;;;4993451;28;20434;-82
2021/06/02 09:22:11;;;;;;;6.10;4.30;;;21.20;99.90;;;;;;4993896;28;20407;-81
2021/06/02 09:24:46;;;;;;;5.37;4.83;;;21.30;99.90;;;;;;4988981;28;20422;-83
2021/06/02 09:27:14;;;;;;;5.83;5.23;;;21.00;99.90;;;;;;4986354;28;20397;-82
2021/06/02 09:29:53;;;;;;;5.53;4.57;;;20.90;99.90;;;;;;4987798;28;20438;-82
2021/06/02 09:32:24;;;;;;;4.97;4.43;;;21.00;99.90;;;;;;4986184;28;20513;-82
2021/06/02 09:35:00;;;;;;;5.97;4.10;;;21.30;99.90;;;;;;4986094;28;20442;-83
2021/06/02 09:37:28;;;;;;;5.90;5.23;;;21.30;99.90;;;;;;4985703;28;20438;-84
2021/06/02 09:39:56;;;;;;;7.17;4.80;;;21.40;99.90;;;;;;4985190;28;20781;-84
2021/06/02 09:42:27;;;;;;;5.10;4.40;;;21.50;99.90;;;;;;4985920;28;20510;-83
2021/06/02 09:45:05;;;;;;;6.03;4.50;;;21.40;99.90;;;;;;4985687;28;20790;-83
2021/06/02 09:47:46;;;;;;;6.30;5.10;;;21.60;99.90;;;;;;4985937;28;20444;-84
2021/06/02 09:50:20;;;;;;;5.70;5.10;;;21.80;99.90;;;;;;4994611;28;20418;-83
2021/06/02 09:52:49;;;;;;;7.33;5.00;;;22.00;99.90;;;;;;4989189;28;20469;-83
2021/06/02 09:55:20;;;;;;;6.33;4.93;;;22.30;99.90;;;;;;4970470;28;20432;-83
2021/06/02 09:57:53;;;;;;;5.83;5.33;;;22.40;99.90;;;;;;5000134;28;20777;-83
2021/06/02 10:00:35;;;;;;;6.40;5.70;;;22.20;99.90;;;;;;4983904;28;20450;-83
2021/06/02 10:03:08;;;;;;;7.43;4.67;;;22.30;99.90;;;;;;4985370;28;20415;-83
2021/06/02 10:05:38;;;;;;;5.03;4.33;;;22.30;99.90;;;;;;4984984;28;20458;-83
2021/06/02 10:08:06;;;;;;;5.30;4.67;;;22.30;99.90;;;;;;4984683;28;20506;-83
2021/06/02 10:10:34;;;;;;;7.17;6.27;;;22.40;99.90;;;;;;4984489;28;20426;-83
2021/06/02 10:13:05;;;;;;;5.50;4.90;;;22.40;99.90;;;;;;4993313;28;20476;-84
2021/06/02 10:15:36;;;;;;;5.87;4.53;;;22.40;99.90;;;;;;4980452;28;20484;-83
2021/06/02 10:18:22;;;;;;;5.73;4.80;;;22.70;99.90;;;;;;5003966;28;20429;-84
2021/06/02 10:20:57;;;;;;;5.93;5.33;;;22.90;99.90;;;;;;4999894;28;20481;-81
2021/06/02 10:23:26;;;;;;;4.47;4.13;;;23.00;99.90;;;;;;4997916;28;20388;-83
2021/06/02 10:26:01;;;;;;;5.93;5.43;;;23.20;99.90;;;;;;4980046;28;20428;-82
2021/06/02 10:28:30;;;;;;;5.20;4.70;;;23.20;99.90;;;;;;5015768;28;20385;-82
2021/06/02 10:30:59;;;;;;;4.50;4.10;;;23.40;99.90;;;;;;5020539;28;20402;-82
2021/06/02 10:33:29;;;;;;;5.40;4.90;;;23.80;99.90;;;;;;5012149;28;20453;-82
2021/06/02 10:35:58;;;;;;;6.63;5.23;;;23.90;99.90;;;;;;5006210;28;20495;-83
2021/06/02 10:38:28;;;;;;;4.97;4.50;;;24.00;99.90;;;;;;5002041;28;20423;-83
2021/06/02 10:40:57;;;;;;;6.87;4.73;;;24.20;99.90;;;;;;5005624;28;20417;-83
2021/06/02 10:43:28;;;;;;;4.43;4.03;;;24.20;99.90;;;;;;4992112;28;20453;-84
2021/06/02 10:46:00;;;;;;;6.17;4.20;;;24.30;99.90;;;;;;4992799;28;20483;-82
2021/06/02 10:48:46;;;;;;;4.63;4.23;;;24.30;99.90;;;;;;4976581;28;20439;-83
2021/06/02 10:51:24;;;;;;;5.47;4.80;;;24.20;99.90;;;;;;4997055;28;20418;-83
2021/06/02 10:54:05;;;;;;;5.70;4.70;;;23.80;99.90;;;;;;4999154;28;20526;-83
2021/06/02 10:56:35;;;;;;;4.70;4.30;;;23.60;99.90;;;;;;4969825;28;20497;-84
2021/06/02 10:59:23;;;;;;;6.90;5.07;;;23.70;99.90;;;;;;4985738;28;20424;-83
2021/06/02 11:02:07;;;;;;;5.70;4.03;;;23.80;99.90;;;;;;4971230;28;20419;-82
2021/06/02 11:04:38;;;;;;;4.13;3.83;;;23.60;99.90;;;;;;4978861;28;20458;-83
2021/06/02 11:07:20;;;;;;;6.20;4.67;;;23.80;99.90;;;;;;4985364;28;20433;-83
2021/06/02 11:09:56;;;;;;;5.60;5.10;;;24.00;99.90;;;;;;4983097;28;20437;-84
2021/06/02 11:12:25;;;;;;;6.33;4.63;;;24.30;99.90;;;;;;4983037;28;20450;-82
2021/06/02 11:14:54;;;;;;;4.77;4.37;;;24.50;99.90;;;;;;4983827;28;20498;-83
2021/06/02 11:17:22;;;;;;;5.00;4.03;;;24.80;99.90;;;;;;4984081;28;20793;-84
2021/06/02 11:19:56;;;;;;;4.23;3.83;;;25.00;99.90;;;;;;4966436;28;20434;-83
2021/06/02 11:22:26;;;;;;;5.73;4.43;;;24.90;99.90;;;;;;4968838;28;20446;-83
2021/06/02 11:24:56;;;;;;;4.70;4.20;;;24.90;99.90;;;;;;4968641;28;20470;-83
2021/06/02 11:27:40;;;;;;;5.13;4.03;;;25.10;99.90;;;;;;4987981;28;20422;-83
2021/06/02 11:30:18;;;;;;;5.20;4.33;;;25.10;99.90;;;;;;4985716;28;20407;-83
2021/06/02 11:32:51;;;;;;;4.60;4.20;;;24.90;99.90;;;;;;4990388;28;20465;-83
2021/06/02 11:35:54;;;;;;;5.10;3.60;;;25.10;99.90;;;;;;4987544;28;20539;-83
2021/06/02 11:38:22;;;;;;;4.90;4.00;;;25.30;99.90;;;;;;4980244;28;20576;-82
2021/06/02 11:40:50;;;;;;;4.23;3.47;;;25.10;99.90;;;;;;4979076;28;20431;-82
2021/06/02 11:43:20;;;;;;;4.50;4.10;;;25.20;99.90;;;;;;4978912;28;20440;-84
2021/06/02 11:45:49;;;;;;;5.80;4.53;;;25.40;99.90;;;;;;4965514;28;20459;-84
2021/06/02 11:48:22;;;;;;;4.50;4.10;;;25.80;99.90;;;;;;4978761;28;20494;-83
2021/06/02 11:50:52;;;;;;;5.07;4.33;;;26.20;99.90;;;;;;4975455;28;20445;-83
2021/06/02 11:53:20;;;;;;;5.20;4.70;;;26.70;99.90;;;;;;4963046;28;20497;-83
2021/06/02 11:55:48;;;;;;;4.33;3.93;;;26.80;99.90;;;;;;4981232;28;20458;-84
2021/06/02 11:58:16;;;;;;;4.57;4.17;;;26.80;99.90;;;;;;4964637;28;20431;-83
2021/06/02 12:00:48;;;;;;;5.20;4.70;;;26.60;99.90;;;;;;4983229;28;20419;-82
2021/06/02 12:03:18;;;;;;;4.50;4.10;;;26.20;99.90;;;;;;4981851;28;20526;-83
2021/06/02 12:05:46;;;;;;;5.60;5.10;;;26.00;99.90;;;;;;4981025;28;20462;-83
2021/06/02 12:08:20;;;;;;;4.07;3.77;;;26.20;99.90;;;;;;4962306;28;20486;-82
2021/06/02 12:10:49;;;;;;;3.30;3.00;;;26.50;99.90;;;;;;4979170;28;20418;-84
2021/06/02 12:13:18;;;;;;;5.10;4.00;;;26.50;99.90;;;;;;4979745;28;20458;-82
2021/06/02 12:15:50;;;;;;;5.60;3.77;;;25.90;99.90;;;;;;4961798;28;20590;-82
2021/06/02 12:18:32;;;;;;;3.93;3.60;;;25.90;99.90;;;;;;4980295;28;20427;-84
2021/06/02 12:21:16;;;;;;;4.17;3.77;;;25.90;99.90;;;;;;4978779;28;20419;-83
2021/06/02 12:23:51;;;;;;;4.27;3.90;;;26.30;99.90;;;;;;4979371;28;20423;-83
2021/06/02 12:26:30;;;;;;;4.93;4.43;;;26.40;99.90;;;;;;4978345;28;20921;-82
2021/06/02 12:29:00;;;;;;;6.10;4.10;;;26.50;99.90;;;;;;4978203;28;20431;-83
2021/06/02 12:31:33;;;;;;;5.67;5.17;;;26.70;99.90;;;;;;4983579;28;20419;-84
2021/06/02 12:34:07;;;;;;;7.03;3.60;;;26.70;99.90;;;;;;4991570;28;20502;-83
2021/06/02 12:36:37;;;;;;;6.70;3.57;;;26.40;99.90;;;;;;4993678;28;20415;-86
2021/06/02 12:39:08;;;;;;;4.43;3.93;;;26.10;99.90;;;;;;4988190;28;20423;-83
2021/06/02 12:41:36;;;;;;;4.50;4.10;;;25.50;99.90;;;;;;4968400;28;20438;-84
2021/06/02 12:44:05;;;;;;;4.20;3.50;;;25.00;99.90;;;;;;4979399;28;20510;-84
2021/06/02 12:46:33;;;;;;;3.00;2.77;;;25.20;99.90;;;;;;4977949;28;20510;-83
2021/06/02 12:49:05;;;;;;;3.43;3.13;;;25.20;99.90;;;;;;4977171;28;20443;-84
2021/06/02 12:51:33;;;;;;;4.00;3.60;;;25.30;99.90;;;;;;4977088;28;20426;-83
2021/06/02 12:54:01;;;;;;;4.37;3.97;;;25.50;99.90;;;;;;4985682;28;20474;-84
2021/06/02 12:56:30;;;;;;;3.27;2.97;;;25.70;99.90;;;;;;4969103;28;20439;-83
2021/06/02 12:58:59;;;;;;;6.60;4.10;;;25.50;99.90;;;;;;4969168;28;20441;-83
2021/06/02 13:01:30;;;;;;;4.90;4.50;;;25.60;99.90;;;;;;4963371;28;20521;-83
2021/06/02 13:04:01;;;;;;;4.67;4.27;;;25.70;99.90;;;;;;4989192;28;20486;-84
2021/06/02 13:06:31;;;;;;;6.07;4.40;;;25.60;99.90;;;;;;4993153;28;20418;-83
2021/06/02 13:09:00;;;;;;;4.23;3.33;;;25.60;99.90;;;;;;4990643;28;20427;-85
2021/06/02 13:11:29;;;;;;;5.20;4.70;;;24.60;99.90;;;;;;4988109;28;20529;-85
2021/06/02 13:14:03;;;;;;;4.73;4.33;;;24.10;99.90;;;;;;4980496;28;20458;-84
2021/06/02 13:16:31;;;;;;;4.20;3.67;;;23.80;99.90;;;;;;4979322;28;20929;-86
2021/06/02 13:19:00;;;;;;;3.70;3.10;;;23.70;99.90;;;;;;4979138;28;20534;-83
2021/06/02 13:21:31;;;;;;;4.80;4.20;;;23.70;99.90;;;;;;4969636;28;20965;-84
2021/06/02 13:24:14;;;;;;;5.87;4.67;;;23.90;99.90;;;;;;4981485;28;20419;-84
2021/06/02 13:26:46;;;;;;;5.10;4.37;;;24.10;99.90;;;;;;4961334;28;20442;-85
2021/06/02 13:29:15;;;;;;;6.70;4.30;;;24.10;99.90;;;;;;4980291;28;20419;-84
2021/06/02 13:31:47;;;;;;;7.03;6.33;;;24.50;99.90;;;;;;4963406;28;20438;-84
2021/06/02 13:34:28;;;;;;;5.23;3.27;;;24.80;99.90;;;;;;4978889;28;20478;-86
2021/06/02 13:36:56;;;;;;;4.70;4.07;;;25.20;99.90;;;;;;4962058;28;20474;-85